This is the latest recevied weather packets stored in our database for station/object WD0REW. If no packets are shown the sender has not sent any weather packets the latest 10 day(s).
| Time | Temp. | Humidity | Pressure | Rain* | Wind** | Luminosity | Snow |
|---|---|---|---|---|---|---|---|
| 1777470453 | 10.56° C | 76% | 1020.3 hPa | 0 mm | - | 87 W/m² | - |
| 1777470150 | 11.11° C | 76% | 1019.9 hPa | 0 mm | - | 82 W/m² | - |
| 1777469846 | 10.56° C | 79% | 1020.4 hPa | 0 mm | - | 75 W/m² | - |
| 1777469542 | 10.56° C | 79% | 1019.9 hPa | 0 mm | - | 72 W/m² | - |
| 1777469242 | 10.56° C | 81% | 1019.9 hPa | 0 mm | - | 68 W/m² | - |
| 1777468937 | 10° C | 82% | 1019.8 hPa | 0 mm | - | 64 W/m² | - |
| 1777468633 | 10° C | 83% | 1019.7 hPa | 0 mm | - | 60 W/m² | - |
| 1777468330 | 10° C | 83% | 1019.9 hPa | 0 mm | - | 56 W/m² | - |
| 1777468026 | 9.44° C | 87% | 1019.9 hPa | 0 mm | - | 52 W/m² | - |
| 1777467722 | 9.44° C | 85% | 1019.7 hPa | 0 mm | - | 51 W/m² | - |
| 1777467418 | 9.44° C | 87% | 1019.9 hPa | 0 mm | - | 43 W/m² | - |
| 1777467113 | 8.89° C | 88% | 1019.4 hPa | 0 mm | - | 43 W/m² | - |
| 1777466810 | 8.89° C | 88% | 1019.5 hPa | 0 mm | - | 38 W/m² | - |
| 1777466509 | 8.89° C | 88% | 1019.3 hPa | 0 mm | - | 37 W/m² | - |
| 1777466204 | 8.89° C | 90% | 1019.3 hPa | 0 mm | - | 31 W/m² | - |
| 1777465901 | 8.89° C | 91% | 1019.3 hPa | 0 mm | - | 30 W/m² | - |
| 1777465597 | 8.33° C | 91% | 1019.1 hPa | 0 mm | - | 28 W/m² | - |
| 1777465292 | 8.33° C | 92% | 1019 hPa | 0 mm | - | 27 W/m² | - |
| 1777464987 | 8.33° C | 93% | 1018.9 hPa | 0 mm | - | 25 W/m² | - |
| 1777464682 | 8.33° C | 92% | 1018.9 hPa | 0 mm | - | 23 W/m² | - |
| 1777464379 | 8.33° C | 93% | 1018.8 hPa | 0 mm | - | 20 W/m² | - |
| 1777464074 | 8.33° C | 93% | 1019.2 hPa | 0 mm | - | 18 W/m² | - |
| 1777463769 | 8.33° C | 93% | 1019 hPa | 0 mm | - | 14 W/m² | - |
| 1777463464 | 8.33° C | 93% | 1018.7 hPa | 0 mm | - | 12 W/m² | - |
| 1777463160 | 8.33° C | 93% | 1018.7 hPa | 0 mm | - | 10 W/m² | - |
* Rain latest hour (hover to see other rain measurements)
** Current wind speed in m/s (hover to see current wind gust speed)